Time;durP1;ratioP1;P1;durP2;ratioP2;P2;SDS_P1;SDS_P2;PMS_P1;PMS_P2;Temp;Humidity;BMP_temperature;BMP_pressure;BME280_temperature;BME280_humidity;BME280_pressure;Samples;Min_cycle;Max_cycle;Signal;HPM_P1;HPM_P2
2023/06/28 00:01:44;;;;;;;10.55;3.95;;;14.40;99.90;;;;;;6244728;23;20350;-60
2023/06/28 00:04:12;;;;;;;11.70;4.55;;;14.50;99.90;;;;;;6245287;23;20082;-59
2023/06/28 00:06:39;;;;;;;12.73;4.75;;;14.50;99.90;;;;;;6245412;23;20028;-59
2023/06/28 00:09:06;;;;;;;7.80;4.28;;;14.50;99.90;;;;;;6244659;23;20350;-60
2023/06/28 00:11:33;;;;;;;8.40;4.13;;;14.50;99.90;;;;;;6243538;23;20513;-60
2023/06/28 00:14:00;;;;;;;10.10;5.22;;;14.50;99.90;;;;;;6245262;23;20031;-60
2023/06/28 00:16:27;;;;;;;13.80;4.32;;;14.50;99.90;;;;;;6244482;23;20020;-61
2023/06/28 00:19:00;;;;;;;16.35;4.60;;;14.50;99.90;;;;;;6243487;23;20027;-60
2023/06/28 00:21:28;;;;;;;10.07;5.22;;;14.60;99.90;;;;;;6245398;23;20024;-61
2023/06/28 00:23:55;;;;;;;11.27;4.85;;;14.60;99.90;;;;;;6242586;23;20024;-61
2023/06/28 00:26:22;;;;;;;7.85;4.70;;;14.60;99.90;;;;;;6243438;23;20024;-62
2023/06/28 00:28:49;;;;;;;11.88;4.20;;;14.70;99.90;;;;;;6245214;23;20046;-61
2023/06/28 00:31:16;;;;;;;11.23;4.20;;;14.70;99.90;;;;;;6244629;23;20381;-61
2023/06/28 00:33:43;;;;;;;8.75;4.50;;;14.70;99.90;;;;;;6244817;22;20393;-60
2023/06/28 00:36:10;;;;;;;7.78;3.97;;;14.70;99.90;;;;;;6242565;23;20020;-60
2023/06/28 00:38:39;;;;;;;13.38;4.50;;;14.70;99.90;;;;;;6245188;23;20034;-61
2023/06/28 00:41:06;;;;;;;10.18;4.18;;;14.80;99.90;;;;;;6244938;23;20024;-60
2023/06/28 00:43:33;;;;;;;12.30;5.05;;;14.80;99.90;;;;;;6244485;23;20055;-60
2023/06/28 00:45:59;;;;;;;11.52;4.60;;;14.80;99.90;;;;;;6245204;23;20020;-61
2023/06/28 00:48:27;;;;;;;9.95;4.80;;;14.80;99.90;;;;;;6243306;23;20353;-60
2023/06/28 00:50:55;;;;;;;7.50;4.20;;;14.80;99.90;;;;;;6244374;23;20027;-60
2023/06/28 00:53:22;;;;;;;10.70;4.65;;;14.80;99.90;;;;;;6245170;23;20026;-60
2023/06/28 00:55:50;;;;;;;11.77;5.10;;;14.70;99.90;;;;;;6245122;23;20016;-60
2023/06/28 00:58:17;;;;;;;16.67;4.90;;;14.70;99.90;;;;;;6243669;23;20031;-60
2023/06/28 01:00:46;;;;;;;9.60;4.72;;;14.70;99.90;;;;;;6247011;23;20020;-60
2023/06/28 01:03:17;;;;;;;14.07;4.47;;;14.70;99.90;;;;;;6246881;23;20024;-60
2023/06/28 01:05:46;;;;;;;11.23;4.53;;;14.60;99.90;;;;;;6246168;23;20024;-60
2023/06/28 01:08:14;;;;;;;9.30;3.80;;;14.60;99.90;;;;;;6246909;23;20020;-60
2023/06/28 01:10:41;;;;;;;11.68;4.43;;;14.60;99.90;;;;;;6246970;23;20028;-61
2023/06/28 01:13:11;;;;;;;6.80;4.95;;;14.50;99.90;;;;;;6246001;23;20362;-60
2023/06/28 01:15:38;;;;;;;8.00;5.25;;;14.50;99.90;;;;;;6246769;23;20026;-60
2023/06/28 01:18:05;;;;;;;10.43;4.90;;;14.40;99.90;;;;;;6246383;22;20466;-60
2023/06/28 01:20:33;;;;;;;18.95;5.90;;;14.40;99.90;;;;;;6244206;23;20462;-60
2023/06/28 01:23:02;;;;;;;12.15;5.47;;;14.30;99.90;;;;;;6246808;23;20020;-60
2023/06/28 01:25:29;;;;;;;13.50;5.88;;;14.20;99.90;;;;;;6244218;23;20028;-60
2023/06/28 01:27:57;;;;;;;10.52;5.40;;;14.20;99.90;;;;;;6244879;23;20027;-60
2023/06/28 01:30:25;;;;;;;11.52;5.18;;;14.10;99.90;;;;;;6246637;23;20023;-60
2023/06/28 01:32:52;;;;;;;12.48;5.78;;;14.10;99.90;;;;;;6245555;23;20028;-60
2023/06/28 01:35:20;;;;;;;10.73;5.43;;;14.10;99.90;;;;;;6246130;23;20016;-60
2023/06/28 01:37:47;;;;;;;10.75;6.32;;;14.00;99.90;;;;;;6246296;23;20083;-60
2023/06/28 01:40:17;;;;;;;10.90;5.20;;;14.10;99.90;;;;;;6245810;23;20034;-60
2023/06/28 01:42:44;;;;;;;10.13;5.97;;;14.00;99.90;;;;;;6244598;23;20050;-61
2023/06/28 01:45:12;;;;;;;10.35;5.70;;;14.00;99.90;;;;;;6244651;23;20342;-60
2023/06/28 01:47:39;;;;;;;13.75;6.35;;;14.00;99.90;;;;;;6243855;23;20024;-60
2023/06/28 01:50:08;;;;;;;9.98;6.13;;;14.10;99.90;;;;;;6246506;23;20027;-60
2023/06/28 01:52:35;;;;;;;10.98;5.53;;;14.10;99.90;;;;;;6246534;23;20062;-60
2023/06/28 01:55:02;;;;;;;11.43;5.85;;;14.10;99.90;;;;;;6245284;23;20569;-61
2023/06/28 01:57:31;;;;;;;11.45;6.05;;;14.10;99.90;;;;;;6244612;23;20104;-61
2023/06/28 01:59:57;;;;;;;13.07;5.95;;;14.10;99.90;;;;;;6246296;23;20115;-61
2023/06/28 02:02:24;;;;;;;11.27;6.13;;;14.10;99.90;;;;;;6245601;23;20020;-61
2023/06/28 02:04:51;;;;;;;13.82;5.82;;;14.10;99.90;;;;;;6245864;23;20024;-61
2023/06/28 02:07:18;;;;;;;10.73;6.35;;;14.10;99.90;;;;;;6246113;22;20024;-61
2023/06/28 02:09:45;;;;;;;12.02;6.68;;;14.20;99.90;;;;;;6244987;23;20024;-61
2023/06/28 02:12:12;;;;;;;15.45;6.30;;;14.20;99.90;;;;;;6246556;23;20074;-61
2023/06/28 02:14:40;;;;;;;13.32;6.35;;;14.20;99.90;;;;;;6243789;23;20400;-61
2023/06/28 02:17:13;;;;;;;11.70;5.78;;;14.10;99.90;;;;;;6244275;23;20020;-61
2023/06/28 02:19:41;;;;;;;12.38;5.43;;;14.10;99.90;;;;;;6245922;23;20028;-61
2023/06/28 02:22:08;;;;;;;10.88;5.07;;;14.20;99.90;;;;;;6245238;23;20024;-60
2023/06/28 02:24:35;;;;;;;12.88;5.78;;;14.20;99.90;;;;;;6244186;23;20423;-60
2023/06/28 02:27:03;;;;;;;12.32;5.03;;;14.20;99.90;;;;;;6245767;23;20500;-60
2023/06/28 02:29:30;;;;;;;12.68;5.30;;;14.10;99.90;;;;;;6245259;23;20055;-60
2023/06/28 02:31:58;;;;;;;12.77;5.80;;;14.10;99.90;;;;;;6245762;23;20469;-60
2023/06/28 02:34:25;;;;;;;11.13;5.95;;;14.20;99.90;;;;;;6244107;23;20027;-61
2023/06/28 02:36:52;;;;;;;19.30;6.25;;;14.20;99.90;;;;;;6244808;23;20450;-60
2023/06/28 02:39:19;;;;;;;14.75;5.60;;;14.10;99.90;;;;;;6245915;23;20034;-61
2023/06/28 02:41:47;;;;;;;9.60;4.85;;;14.10;99.90;;;;;;6245694;23;20020;-61
2023/06/28 02:44:14;;;;;;;10.45;6.00;;;14.10;99.90;;;;;;6243295;23;20028;-61
2023/06/28 02:46:41;;;;;;;11.90;5.43;;;14.20;99.90;;;;;;6245915;23;20027;-61
2023/06/28 02:49:10;;;;;;;10.88;5.32;;;14.20;99.90;;;;;;6245471;23;20024;-61
2023/06/28 02:51:37;;;;;;;13.05;5.95;;;14.20;99.90;;;;;;6244754;23;20490;-60
2023/06/28 02:54:03;;;;;;;10.25;5.53;;;14.20;99.90;;;;;;6245761;23;20473;-62
2023/06/28 02:56:30;;;;;;;13.32;5.65;;;14.20;99.90;;;;;;6245381;23;20342;-60
2023/06/28 02:58:57;;;;;;;14.02;6.05;;;14.20;99.90;;;;;;6244880;23;20024;-60
2023/06/28 03:01:25;;;;;;;9.70;5.40;;;14.20;99.90;;;;;;6245224;23;20349;-60
2023/06/28 03:03:52;;;;;;;9.15;5.20;;;14.20;99.90;;;;;;6244899;23;20028;-60
2023/06/28 03:06:21;;;;;;;9.15;5.40;;;14.10;99.90;;;;;;6245697;23;20074;-61
2023/06/28 03:08:48;;;;;;;10.43;5.32;;;14.20;99.90;;;;;;6245555;23;20027;-61
2023/06/28 03:11:14;;;;;;;13.45;5.80;;;14.10;99.90;;;;;;6243100;23;20075;-61
2023/06/28 03:13:42;;;;;;;10.30;5.85;;;14.10;99.90;;;;;;6245411;23;20354;-60
2023/06/28 03:16:09;;;;;;;14.30;5.40;;;14.10;99.90;;;;;;6243666;23;20031;-61
2023/06/28 03:18:36;;;;;;;10.07;5.82;;;14.10;99.90;;;;;;6243105;23;20467;-61
2023/06/28 03:21:03;;;;;;;11.85;5.55;;;14.10;99.90;;;;;;6243622;23;20488;-61
2023/06/28 03:23:31;;;;;;;11.60;5.45;;;14.20;99.90;;;;;;6243800;23;20026;-60
2023/06/28 03:25:58;;;;;;;9.32;5.07;;;14.20;99.90;;;;;;6244402;23;20465;-60
2023/06/28 03:28:25;;;;;;;8.13;5.40;;;14.30;99.90;;;;;;6243826;23;20078;-61
2023/06/28 03:30:52;;;;;;;11.25;5.03;;;14.30;99.90;;;;;;6245478;23;20032;-61
2023/06/28 03:33:19;;;;;;;12.38;5.18;;;14.40;99.90;;;;;;6244893;23;20463;-61
2023/06/28 03:35:46;;;;;;;8.07;5.10;;;14.40;99.90;;;;;;6243480;23;20024;-61
2023/06/28 03:38:13;;;;;;;7.78;4.68;;;14.50;99.90;;;;;;6243720;23;20031;-61
2023/06/28 03:40:41;;;;;;;7.82;5.10;;;14.60;99.90;;;;;;6244731;23;20392;-60
2023/06/28 03:43:08;;;;;;;10.20;4.45;;;14.60;99.90;;;;;;6245082;23;20028;-60
2023/06/28 03:45:36;;;;;;;10.70;3.88;;;14.60;99.90;;;;;;6245214;23;20023;-60
2023/06/28 03:48:03;;;;;;;7.05;4.40;;;14.70;99.90;;;;;;6242146;23;20369;-61
2023/06/28 03:50:30;;;;;;;9.98;5.00;;;15.20;99.90;;;;;;6242498;23;20020;-60
2023/06/28 03:52:57;;;;;;;7.40;3.90;;;14.80;99.90;;;;;;6243105;23;20026;-61
2023/06/28 03:55:24;;;;;;;6.78;3.83;;;14.90;99.90;;;;;;6243846;23;20026;-60
2023/06/28 03:57:52;;;;;;;7.13;4.18;;;15.00;99.90;;;;;;6242179;23;20024;-61
2023/06/28 04:00:20;;;;;;;6.72;3.67;;;15.10;99.90;;;;;;6241546;23;20024;-61
2023/06/28 04:02:47;;;;;;;8.65;4.47;;;15.20;99.90;;;;;;6244184;23;20476;-61
2023/06/28 04:05:14;;;;;;;5.65;3.72;;;15.20;99.90;;;;;;6244055;23;20035;-60
2023/06/28 04:07:41;;;;;;;6.72;3.80;;;15.20;99.90;;;;;;6243759;23;20030;-60
2023/06/28 04:10:09;;;;;;;7.18;3.60;;;15.20;99.90;;;;;;6241808;23;20036;-61
2023/06/28 04:12:36;;;;;;;4.55;3.50;;;15.30;99.90;;;;;;6244138;23;20024;-61
2023/06/28 04:15:07;;;;;;;11.50;4.20;;;15.30;99.90;;;;;;6243348;22;20054;-60
2023/06/28 04:17:34;;;;;;;8.30;3.88;;;15.30;99.90;;;;;;6242153;23;20493;-61
2023/06/28 04:20:05;;;;;;;7.40;3.05;;;15.30;99.90;;;;;;6244085;23;20032;-61
2023/06/28 04:22:32;;;;;;;8.88;4.10;;;15.40;99.90;;;;;;6241426;23;20127;-61
2023/06/28 04:24:59;;;;;;;9.57;4.38;;;15.30;99.90;;;;;;6244054;23;20026;-61
2023/06/28 04:27:26;;;;;;;12.65;4.50;;;15.40;99.90;;;;;;6244018;23;20023;-61
2023/06/28 04:29:53;;;;;;;17.67;4.35;;;15.50;99.90;;;;;;6243095;23;20028;-61
2023/06/28 04:32:23;;;;;;;10.25;3.85;;;15.40;99.90;;;;;;6244047;23;20027;-61
2023/06/28 04:34:52;;;;;;;5.57;3.33;;;15.40;99.90;;;;;;6243873;23;20024;-64
2023/06/28 04:37:20;;;;;;;8.38;3.95;;;15.40;99.90;;;;;;6242753;23;20016;-65
2023/06/28 04:39:47;;;;;;;8.27;4.15;;;15.40;99.90;;;;;;6245714;23;20028;-60
2023/06/28 04:42:15;;;;;;;8.70;4.28;;;15.40;99.90;;;;;;6242958;23;20111;-61
2023/06/28 04:44:43;;;;;;;10.13;4.20;;;15.30;99.90;;;;;;6245356;23;20342;-60
2023/06/28 04:47:15;;;;;;;8.77;4.00;;;15.30;99.90;;;;;;6246150;23;20026;-62
2023/06/28 04:49:48;;;;;;;6.60;4.43;;;15.20;99.90;;;;;;6244959;23;20469;-61
2023/06/28 04:52:15;;;;;;;7.78;4.00;;;15.20;99.90;;;;;;6246302;23;20449;-60
2023/06/28 04:54:42;;;;;;;5.53;4.25;;;15.20;99.90;;;;;;6245613;23;20024;-61
2023/06/28 04:57:09;;;;;;;13.48;4.57;;;15.10;99.90;;;;;;6242973;23;20071;-60
2023/06/28 04:59:36;;;;;;;6.60;4.05;;;15.10;99.90;;;;;;6243410;23;20496;-61
2023/06/28 05:02:05;;;;;;;8.77;4.80;;;15.10;99.90;;;;;;6245548;23;20455;-61
2023/06/28 05:04:33;;;;;;;8.18;4.55;;;15.00;99.90;;;;;;6244838;22;20024;-60
2023/06/28 05:07:04;;;;;;;9.75;4.70;;;15.10;99.90;;;;;;6245541;23;20078;-61
2023/06/28 05:09:31;;;;;;;8.48;4.65;;;15.20;99.90;;;;;;6244779;23;20842;-61
2023/06/28 05:11:59;;;;;;;11.90;5.15;;;15.20;99.90;;;;;;6244713;23;20066;-61
2023/06/28 05:14:26;;;;;;;8.27;4.75;;;15.10;99.90;;;;;;6245700;23;20046;-61
2023/06/28 05:16:53;;;;;;;9.50;4.82;;;15.20;99.90;;;;;;6243303;23;20020;-61
2023/06/28 05:19:20;;;;;;;11.55;5.05;;;15.20;99.90;;;;;;6245030;23;20023;-61
2023/06/28 05:21:47;;;;;;;8.88;4.88;;;15.20;99.90;;;;;;6245544;23;20024;-62
2023/06/28 05:24:17;;;;;;;8.52;5.13;;;15.20;99.90;;;;;;6245272;22;20028;-62
2023/06/28 05:26:44;;;;;;;12.07;5.28;;;15.20;99.90;;;;;;6243135;23;20028;-62
2023/06/28 05:29:11;;;;;;;9.95;4.85;;;15.20;99.90;;;;;;6245337;23;20020;-61
2023/06/28 05:31:38;;;;;;;7.00;4.60;;;15.20;99.90;;;;;;6244927;22;20024;-61
2023/06/28 05:34:05;;;;;;;7.90;4.70;;;15.20;99.90;;;;;;6245302;23;20031;-61
2023/06/28 05:36:33;;;;;;;8.27;4.70;;;15.30;99.90;;;;;;6243191;23;20020;-61
2023/06/28 05:39:00;;;;;;;9.10;4.93;;;15.30;99.90;;;;;;6244682;23;20032;-61
2023/06/28 05:41:28;;;;;;;7.22;4.68;;;15.30;99.90;;;;;;6243352;23;20035;-61
2023/06/28 05:43:55;;;;;;;6.95;4.35;;;15.40;99.90;;;;;;6243548;23;20601;-60
2023/06/28 05:46:22;;;;;;;8.10;5.22;;;15.50;99.90;;;;;;6243794;22;20016;-61
2023/06/28 05:48:51;;;;;;;10.63;4.88;;;15.50;99.90;;;;;;6245469;23;20035;-61
2023/06/28 05:51:18;;;;;;;9.52;4.80;;;15.60;99.90;;;;;;6242394;23;20024;-62
2023/06/28 05:53:45;;;;;;;7.28;4.15;;;15.70;99.90;;;;;;6244459;23;20082;-61
2023/06/28 05:56:12;;;;;;;7.38;4.68;;;15.80;99.90;;;;;;6245609;23;20074;-61
2023/06/28 05:58:40;;;;;;;7.05;4.40;;;15.90;99.90;;;;;;6243365;23;20099;-61
2023/06/28 06:01:07;;;;;;;5.85;4.10;;;15.90;99.90;;;;;;6242331;23;20028;-61
2023/06/28 06:03:34;;;;;;;8.18;4.38;;;16.10;99.90;;;;;;6246265;23;20486;-60
2023/06/28 06:06:01;;;;;;;7.78;4.22;;;16.10;99.90;;;;;;6244648;23;20028;-61
2023/06/28 06:08:28;;;;;;;5.90;4.10;;;16.30;99.90;;;;;;6243506;23;20070;-60
2023/06/28 06:10:55;;;;;;;6.32;4.50;;;16.30;99.90;;;;;;6246329;23;20020;-61
2023/06/28 06:13:22;;;;;;;6.43;4.35;;;16.30;99.90;;;;;;6245295;22;20020;-61
2023/06/28 06:15:50;;;;;;;6.57;4.20;;;16.30;99.90;;;;;;6243717;23;20527;-61
2023/06/28 06:18:17;;;;;;;7.13;4.20;;;16.30;99.90;;;;;;6245861;23;20020;-61
2023/06/28 06:20:44;;;;;;;8.60;4.55;;;16.30;99.90;;;;;;6245505;23;20081;-61
2023/06/28 06:23:12;;;;;;;6.47;3.95;;;16.40;99.90;;;;;;6245844;22;20537;-61
2023/06/28 06:25:39;;;;;;;7.95;4.40;;;16.40;99.90;;;;;;6245867;23;20024;-61
2023/06/28 06:28:06;;;;;;;7.22;4.63;;;16.40;99.90;;;;;;6245209;23;20391;-61
2023/06/28 06:30:32;;;;;;;9.57;4.53;;;16.30;99.90;;;;;;6244226;23;20045;-61
2023/06/28 06:33:01;;;;;;;7.15;4.88;;;16.30;99.90;;;;;;6244089;23;20024;-60
2023/06/28 06:35:28;;;;;;;8.90;4.32;;;16.30;99.90;;;;;;6243443;23;20450;-61
2023/06/28 06:37:55;;;;;;;9.05;4.70;;;16.30;99.90;;;;;;6245748;23;20024;-61
2023/06/28 06:40:22;;;;;;;9.52;5.18;;;16.30;99.90;;;;;;6245617;23;20353;-61
2023/06/28 06:42:49;;;;;;;8.30;5.18;;;16.30;99.90;;;;;;6244694;23;20024;-60
2023/06/28 06:45:19;;;;;;;10.77;5.38;;;16.30;99.90;;;;;;6246115;22;20024;-60
2023/06/28 06:47:46;;;;;;;7.60;4.90;;;16.30;99.90;;;;;;6244494;23;20446;-61
2023/06/28 06:50:17;;;;;;;11.93;5.65;;;16.30;99.90;;;;;;6245226;22;20060;-61
2023/06/28 06:52:44;;;;;;;;;;;16.30;99.90;;;;;;6246063;23;20020;-61
2023/06/28 06:55:11;;;;;;;12.18;6.78;;;16.20;99.90;;;;;;6243898;23;19924;-61
2023/06/28 06:57:38;;;;;;;12.27;5.82;;;16.10;99.90;;;;;;6243166;23;20020;-61
2023/06/28 07:00:06;;;;;;;8.65;6.13;;;16.10;99.90;;;;;;6245865;22;20031;-61
2023/06/28 07:02:33;;;;;;;14.43;7.05;;;16.00;99.90;;;;;;6245767;23;20024;-61
2023/06/28 07:05:00;;;;;;;10.52;5.70;;;16.10;99.90;;;;;;6243221;23;20397;-61
2023/06/28 07:07:28;;;;;;;9.95;5.82;;;16.00;99.90;;;;;;6245692;23;20030;-60
2023/06/28 07:09:55;;;;;;;9.18;5.75;;;16.00;99.90;;;;;;6244948;23;20031;-61
2023/06/28 07:12:22;;;;;;;10.60;6.53;;;16.00;99.90;;;;;;6245399;23;20528;-60
2023/06/28 07:14:49;;;;;;;14.85;6.20;;;16.00;99.90;;;;;;6243788;23;20028;-61
2023/06/28 07:17:16;;;;;;;10.75;6.10;;;16.10;99.90;;;;;;6244836;23;20056;-61
2023/06/28 07:19:43;;;;;;;10.07;6.43;;;16.10;99.90;;;;;;6243788;23;20147;-61
2023/06/28 07:22:11;;;;;;;11.18;6.70;;;16.10;99.90;;;;;;6243724;23;20024;-60
2023/06/28 07:24:39;;;;;;;12.13;6.45;;;16.10;99.90;;;;;;6244607;22;20098;-61
2023/06/28 07:27:06;;;;;;;12.23;7.03;;;16.10;99.90;;;;;;6245491;23;20024;-61
2023/06/28 07:29:33;;;;;;;12.85;7.22;;;16.10;99.90;;;;;;6245653;22;20070;-62
2023/06/28 07:32:00;;;;;;;11.25;6.35;;;16.20;99.90;;;;;;6242910;23;20020;-60
2023/06/28 07:34:27;;;;;;;17.23;7.50;;;16.30;99.90;;;;;;6243652;23;20028;-61
2023/06/28 07:36:54;;;;;;;15.68;7.00;;;16.40;99.90;;;;;;6243603;23;20358;-61
2023/06/28 07:39:21;;;;;;;16.83;7.03;;;16.50;99.90;;;;;;6242864;23;20020;-61
2023/06/28 07:41:49;;;;;;;11.73;6.50;;;16.70;99.90;;;;;;6245222;23;20358;-61
2023/06/28 07:44:16;;;;;;;16.40;6.80;;;16.70;99.90;;;;;;6245113;23;20031;-61
2023/06/28 07:46:43;;;;;;;12.07;7.07;;;16.70;99.90;;;;;;6243015;23;20027;-62
2023/06/28 07:49:10;;;;;;;11.32;7.07;;;16.60;99.90;;;;;;6245107;23;20358;-61
2023/06/28 07:51:37;;;;;;;11.50;5.93;;;16.60;99.90;;;;;;6245014;23;20458;-61
2023/06/28 07:54:04;;;;;;;14.90;7.20;;;16.50;99.90;;;;;;6244264;23;20462;-61
2023/06/28 07:56:31;;;;;;;13.40;6.97;;;16.50;99.90;;;;;;6245325;23;20028;-61
2023/06/28 07:59:02;;;;;;;15.05;6.72;;;16.50;99.90;;;;;;6245176;23;20324;-61
2023/06/28 08:01:32;;;;;;;10.35;6.45;;;16.50;99.90;;;;;;6244765;23;20020;-62
2023/06/28 08:03:59;;;;;;;12.40;6.57;;;16.50;99.90;;;;;;6244930;23;20493;-61
2023/06/28 08:06:26;;;;;;;11.55;6.28;;;16.60;99.90;;;;;;6242739;23;20032;-60
2023/06/28 08:08:53;;;;;;;11.55;6.53;;;16.50;99.90;;;;;;6245145;23;20331;-60
2023/06/28 08:11:19;;;;;;;11.30;6.60;;;16.60;99.90;;;;;;6247106;23;20323;-61
2023/06/28 08:13:46;;;;;;;14.45;7.13;;;16.60;99.90;;;;;;6246754;23;20345;-61
2023/06/28 08:16:15;;;;;;;11.52;6.30;;;16.70;99.90;;;;;;6247424;23;20027;-60
2023/06/28 08:18:42;;;;;;;11.45;6.57;;;16.80;99.90;;;;;;6247049;23;20024;-62
2023/06/28 08:21:09;;;;;;;11.75;6.85;;;16.80;99.90;;;;;;6246630;23;20032;-61
2023/06/28 08:23:36;;;;;;;12.07;6.90;;;16.90;99.90;;;;;;6245577;23;20028;-61
2023/06/28 08:26:03;;;;;;;11.40;6.97;;;16.80;99.90;;;;;;6245460;23;20028;-61
2023/06/28 08:28:30;;;;;;;10.45;6.60;;;16.90;99.90;;;;;;6244795;23;20032;-61
2023/06/28 08:30:57;;;;;;;12.68;6.53;;;17.00;99.90;;;;;;6246532;23;20024;-61
2023/06/28 08:33:25;;;;;;;11.60;7.13;;;17.10;99.90;;;;;;6247252;23;20046;-60
2023/06/28 08:35:52;;;;;;;10.10;6.65;;;17.10;99.90;;;;;;6246440;23;20095;-60
2023/06/28 08:38:19;;;;;;;10.13;5.78;;;17.20;99.90;;;;;;6246715;23;20079;-60
2023/06/28 08:40:46;;;;;;;10.43;6.25;;;17.30;99.90;;;;;;6247229;23;20099;-62
2023/06/28 08:43:16;;;;;;;8.50;5.50;;;17.30;99.90;;;;;;6245868;23;20028;-61
2023/06/28 08:45:44;;;;;;;8.50;6.20;;;17.20;99.90;;;;;;6247183;23;20035;-61
2023/06/28 08:48:13;;;;;;;10.25;6.10;;;17.30;99.90;;;;;;6245317;23;20389;-61
2023/06/28 08:50:43;;;;;;;9.93;5.90;;;17.30;99.90;;;;;;6246322;23;20024;-61
2023/06/28 08:53:16;;;;;;;11.38;6.55;;;17.30;99.90;;;;;;6247149;22;20070;-61
2023/06/28 08:55:43;;;;;;;9.57;6.15;;;17.40;99.90;;;;;;6244501;23;20139;-61
2023/06/28 08:58:12;;;;;;;9.02;6.78;;;17.40;99.90;;;;;;6246945;23;20027;-61
2023/06/28 09:00:41;;;;;;;12.80;6.50;;;17.40;99.90;;;;;;6247064;23;20074;-61
2023/06/28 09:03:09;;;;;;;11.13;6.35;;;17.40;99.90;;;;;;6246168;23;20028;-61
2023/06/28 09:05:37;;;;;;;11.93;7.18;;;17.40;99.90;;;;;;6247010;23;20027;-62
2023/06/28 09:08:06;;;;;;;12.57;6.93;;;17.40;99.90;;;;;;6246966;23;20026;-62
2023/06/28 09:10:34;;;;;;;15.43;7.45;;;17.40;99.90;;;;;;6245902;23;20022;-61
2023/06/28 09:13:02;;;;;;;8.93;6.65;;;17.40;99.90;;;;;;6245099;23;20468;-61
2023/06/28 09:15:29;;;;;;;13.65;7.60;;;17.30;99.90;;;;;;6246412;23;20030;-61
2023/06/28 09:17:56;;;;;;;10.35;7.15;;;17.30;99.90;;;;;;6245741;23;20099;-60
2023/06/28 09:20:23;;;;;;;12.50;8.10;;;17.30;99.90;;;;;;6246467;23;20481;-60
2023/06/28 09:22:57;;;;;;;12.32;7.40;;;17.20;99.90;;;;;;6244814;23;20074;-61
2023/06/28 09:25:27;;;;;;;10.77;7.55;;;17.20;99.90;;;;;;6244136;23;20061;-60
2023/06/28 09:27:55;;;;;;;13.93;7.95;;;17.10;99.90;;;;;;6246769;23;20017;-61
2023/06/28 09:30:22;;;;;;;15.60;8.05;;;17.20;99.90;;;;;;6244739;23;20103;-61
2023/06/28 09:32:51;;;;;;;13.93;7.65;;;17.20;99.90;;;;;;6244220;23;20024;-61
2023/06/28 09:35:18;;;;;;;11.40;7.57;;;17.30;99.90;;;;;;6246638;23;20024;-60
2023/06/28 09:37:50;;;;;;;9.95;7.60;;;17.30;99.90;;;;;;6245892;23;20027;-60
2023/06/28 09:40:18;;;;;;;17.80;8.13;;;17.30;99.90;;;;;;6246273;23;20024;-61
2023/06/28 09:42:48;;;;;;;11.23;8.23;;;17.40;99.90;;;;;;6246165;23;20484;-60
2023/06/28 09:45:24;;;;;;;;;;;17.30;99.90;;;;;;6244500;23;20034;-61
2023/06/28 09:47:56;;;;;;;11.98;7.88;;;17.30;99.90;;;;;;6247134;23;19916;-61
2023/06/28 09:50:34;;;;;;;13.85;8.23;;;17.30;99.90;;;;;;6246557;23;20019;-61
2023/06/28 09:53:01;;;;;;;17.42;8.68;;;17.30;99.90;;;;;;6243920;23;20126;-61
2023/06/28 09:55:28;;;;;;;12.05;8.90;;;17.40;99.90;;;;;;6246420;23;20024;-61
2023/06/28 09:57:58;;;;;;;18.80;9.27;;;17.30;99.90;;;;;;6244680;23;20027;-61
2023/06/28 10:00:27;;;;;;;15.90;8.85;;;17.30;99.90;;;;;;6245351;23;20025;-62
2023/06/28 10:02:54;;;;;;;14.27;9.00;;;17.30;99.90;;;;;;6246484;23;20103;-61
2023/06/28 10:05:21;;;;;;;15.57;9.48;;;17.20;99.90;;;;;;6244433;23;20027;-61
2023/06/28 10:07:50;;;;;;;13.98;9.18;;;17.20;99.90;;;;;;6243770;23;20350;-61
2023/06/28 10:10:18;;;;;;;14.68;9.25;;;17.20;99.90;;;;;;6244407;23;20024;-61
2023/06/28 10:12:46;;;;;;;13.35;9.18;;;17.20;99.90;;;;;;6246076;23;20070;-61
2023/06/28 10:15:19;;;;;;;12.23;9.35;;;17.20;99.90;;;;;;6246189;23;20024;-62
2023/06/28 10:17:46;;;;;;;13.95;9.32;;;17.30;99.90;;;;;;6246389;23;20095;-61
2023/06/28 10:20:13;;;;;;;15.18;8.57;;;17.30;99.90;;;;;;6245082;23;20477;-61
2023/06/28 10:22:41;;;;;;;16.95;9.00;;;17.30;99.90;;;;;;6246281;23;20084;-61
2023/06/28 10:25:08;;;;;;;12.88;9.23;;;17.30;99.90;;;;;;6246123;23;20032;-61
2023/06/28 10:27:36;;;;;;;13.65;8.82;;;17.40;99.90;;;;;;6245484;22;20028;-61
2023/06/28 10:30:04;;;;;;;13.13;8.65;;;17.40;99.90;;;;;;6245599;23;20074;-62
2023/06/28 10:32:33;;;;;;;14.32;9.27;;;17.30;99.90;;;;;;6243949;23;20031;-60
2023/06/28 10:35:00;;;;;;;13.85;9.35;;;17.40;99.90;;;;;;6243103;23;20454;-61
2023/06/28 10:37:27;;;;;;;12.63;9.32;;;17.30;99.90;;;;;;6246012;23;20030;-61
2023/06/28 10:39:54;;;;;;;13.65;9.30;;;17.40;99.90;;;;;;6244043;23;20030;-61
2023/06/28 10:42:22;;;;;;;11.55;9.02;;;17.40;99.90;;;;;;6245303;23;20028;-62
2023/06/28 10:44:53;;;;;;;11.68;9.18;;;17.40;99.90;;;;;;6245874;23;20026;-62
2023/06/28 10:47:21;;;;;;;11.63;8.45;;;17.40;99.90;;;;;;6244091;23;20028;-62
2023/06/28 10:50:08;;;;;;;14.50;9.45;;;17.40;99.90;;;;;;6243289;23;20074;-61
2023/06/28 10:52:35;;;;;;;14.00;9.45;;;17.40;99.90;;;;;;6243931;23;20027;-61
2023/06/28 10:55:03;;;;;;;14.20;9.07;;;17.40;99.90;;;;;;6243178;23;20033;-61
2023/06/28 10:57:39;;;;;;;13.15;9.35;;;17.40;99.90;;;;;;6244123;23;20107;-60
2023/06/28 11:00:10;;;;;;;13.45;8.82;;;17.40;99.90;;;;;;6243887;23;20028;-60
2023/06/28 11:02:54;;;;;;;12.65;8.90;;;17.50;99.90;;;;;;6245270;22;20024;-61
2023/06/28 11:05:53;;;;;;;13.00;8.40;;;17.50;99.90;;;;;;6243775;23;20393;-61
2023/06/28 11:08:21;;;;;;;12.55;9.07;;;17.50;99.90;;;;;;6246033;23;20051;-62
2023/06/28 11:10:49;;;;;;;10.55;8.93;;;17.50;99.90;;;;;;6243494;23;20028;-62
2023/06/28 11:13:32;;;;;;;10.85;9.05;;;17.50;99.90;;;;;;6245778;23;20020;-62
2023/06/28 11:16:08;;;;;;;13.02;9.38;;;17.50;99.90;;;;;;6245729;23;20103;-60
2023/06/28 11:18:35;;;;;;;16.13;10.18;;;17.50;99.90;;;;;;6245737;23;20020;-61
2023/06/28 11:21:04;;;;;;;15.15;9.65;;;17.60;99.90;;;;;;6243717;23;20024;-61
2023/06/28 11:23:36;;;;;;;13.57;10.20;;;17.60;99.90;;;;;;6243102;23;20028;-61
2023/06/28 11:26:05;;;;;;;13.82;10.20;;;17.60;99.90;;;;;;6245641;23;20055;-61
2023/06/28 11:28:33;;;;;;;17.92;11.25;;;17.50;99.90;;;;;;6245988;23;20020;-61
2023/06/28 11:31:17;;;;;;;17.83;11.00;;;17.40;99.90;;;;;;6244630;23;20020;-60
2023/06/28 11:33:45;;;;;;;15.57;11.20;;;17.50;99.90;;;;;;6245273;23;20462;-61
2023/06/28 11:36:14;;;;;;;15.35;11.25;;;17.40;99.90;;;;;;6245238;23;20358;-60
2023/06/28 11:38:45;;;;;;;17.00;11.15;;;17.30;99.90;;;;;;6244686;23;20051;-61
2023/06/28 11:41:14;;;;;;;15.65;11.52;;;17.40;99.90;;;;;;6245168;23;20024;-61
2023/06/28 11:43:41;;;;;;;14.18;10.90;;;17.40;99.90;;;;;;6245103;23;20027;-61
2023/06/28 11:46:08;;;;;;;17.92;11.77;;;17.40;99.90;;;;;;6244774;22;20032;-61
2023/06/28 11:48:35;;;;;;;15.48;11.45;;;17.40;99.90;;;;;;6245551;23;20027;-60
2023/06/28 11:51:04;;;;;;;20.33;12.90;;;17.40;99.90;;;;;;6243441;23;20024;-61
2023/06/28 11:53:33;;;;;;;14.60;10.75;;;17.50;99.90;;;;;;6242836;23;20030;-61
2023/06/28 11:56:00;;;;;;;16.40;11.77;;;17.50;99.90;;;;;;6243310;23;20028;-62
2023/06/28 11:58:29;;;;;;;19.55;12.85;;;17.50;99.90;;;;;;6244613;23;20046;-61
2023/06/28 12:00:56;;;;;;;18.15;11.95;;;17.50;99.90;;;;;;6243464;23;20035;-60
2023/06/28 12:03:34;;;;;;;15.60;11.45;;;17.50;99.90;;;;;;6243428;23;20024;-60
2023/06/28 12:06:01;;;;;;;16.58;11.75;;;17.60;99.90;;;;;;6244156;23;20458;-61
2023/06/28 12:08:34;;;;;;;16.15;11.05;;;17.60;99.90;;;;;;6243547;23;20086;-62
2023/06/28 12:11:01;;;;;;;17.90;12.38;;;17.80;99.90;;;;;;6245390;23;20046;-60
2023/06/28 12:13:29;;;;;;;16.75;12.35;;;17.90;99.90;;;;;;6244647;23;20020;-61
2023/06/28 12:15:58;;;;;;;19.15;12.02;;;18.00;99.90;;;;;;6245263;23;20032;-62
2023/06/28 12:18:54;;;;;;;20.35;12.43;;;17.90;99.90;;;;;;6243489;23;20397;-61
2023/06/28 12:21:22;;;;;;;17.38;12.43;;;18.00;99.90;;;;;;6244536;23;20086;-61
2023/06/28 12:23:51;;;;;;;17.25;12.70;;;18.00;99.90;;;;;;6243403;23;20031;-61
2023/06/28 12:26:18;;;;;;;20.88;13.18;;;18.00;99.90;;;;;;6243217;23;20036;-61
2023/06/28 12:28:49;;;;;;;17.42;12.38;;;17.90;99.90;;;;;;6244633;22;20338;-61
2023/06/28 12:31:16;;;;;;;17.83;13.60;;;18.00;99.90;;;;;;6243287;23;20031;-60
2023/06/28 12:33:43;;;;;;;17.75;13.38;;;18.00;99.90;;;;;;6242595;23;20024;-60
2023/06/28 12:36:15;;;;;;;15.45;12.40;;;18.00;99.90;;;;;;6243316;23;20078;-61
2023/06/28 12:38:45;;;;;;;17.67;12.73;;;18.00;99.90;;;;;;6243365;23;20020;-61
2023/06/28 12:41:15;;;;;;;16.55;12.23;;;18.10;99.90;;;;;;6244146;22;20475;-60
2023/06/28 12:43:42;;;;;;;14.32;11.43;;;18.10;99.90;;;;;;6245362;22;20354;-61